createdAt,value
2017-10-04T00:00:03.822Z,1016.08
2017-10-04T00:00:29.950Z,1016.1
2017-10-04T00:00:56.077Z,1016.17
2017-10-04T00:01:22.199Z,1016.14
2017-10-04T00:01:48.325Z,1016.13
2017-10-04T00:02:14.447Z,1016.17
2017-10-04T00:02:40.565Z,1016.13
2017-10-04T00:03:06.693Z,1016.19
2017-10-04T00:03:32.816Z,1016.14
2017-10-04T00:03:58.937Z,1016.14
2017-10-04T00:04:25.065Z,1016.21
2017-10-04T00:04:51.184Z,1016.16
2017-10-04T00:05:17.307Z,1016.18
2017-10-04T00:05:43.432Z,1016.19
2017-10-04T00:06:09.550Z,1016.14
2017-10-04T00:06:35.678Z,1016.22
2017-10-04T00:07:01.804Z,1016.17
2017-10-04T00:07:27.924Z,1016.22
2017-10-04T00:07:54.049Z,1016.22
2017-10-04T00:08:20.170Z,1016.16
2017-10-04T00:08:46.292Z,1016.19
2017-10-04T00:09:12.412Z,1016.23
2017-10-04T00:09:38.538Z,1016.3
2017-10-04T00:10:04.665Z,1016.24
2017-10-04T00:10:30.783Z,1016.27
2017-10-04T00:10:56.907Z,1016.25
2017-10-04T00:11:23.032Z,1016.27
2017-10-04T00:11:49.156Z,1016.22
2017-10-04T00:12:15.285Z,1016.18
2017-10-04T00:12:41.409Z,1016.19
2017-10-04T00:13:07.529Z,1016.16
2017-10-04T00:13:33.655Z,1016.12
2017-10-04T00:13:59.781Z,1016.09
2017-10-04T00:14:25.898Z,1016.09
2017-10-04T00:14:52.022Z,1016.13
2017-10-04T00:15:18.143Z,1016.12
2017-10-04T00:15:44.271Z,1016.18
2017-10-04T00:16:10.386Z,1016.11
2017-10-04T00:16:36.502Z,1016.1
2017-10-04T00:17:02.631Z,1016.1
2017-10-04T00:17:28.758Z,1016.06
2017-10-04T00:17:54.881Z,1016.06
2017-10-04T00:18:21.002Z,1016.04
2017-10-04T00:18:47.132Z,1016.09
2017-10-04T00:19:13.255Z,1016.08
2017-10-04T00:19:39.372Z,1016.09
2017-10-04T00:20:05.505Z,1016.08
2017-10-04T00:20:31.618Z,1016.13
2017-10-04T00:20:57.740Z,1016.08
2017-10-04T00:21:24.020Z,1016.14
2017-10-04T00:21:50.145Z,1016.15
2017-10-04T00:22:16.263Z,1016.08
2017-10-04T00:22:42.393Z,1016.08
2017-10-04T00:23:08.518Z,1016.09
2017-10-04T00:23:34.638Z,1016.09
2017-10-04T00:24:00.765Z,1016.06
2017-10-04T00:24:26.887Z,1016.05
2017-10-04T00:24:53.004Z,1016.04
2017-10-04T00:25:19.132Z,1016.05
2017-10-04T00:25:45.251Z,1016.07
2017-10-04T00:26:11.372Z,1016.1
2017-10-04T00:26:37.497Z,1016.03
2017-10-04T00:27:03.625Z,1016.06
2017-10-04T00:27:29.742Z,1016.11
2017-10-04T00:27:55.864Z,1016.09
2017-10-04T00:28:21.992Z,1016.03
2017-10-04T00:28:48.110Z,1016.03
2017-10-04T00:29:14.236Z,1016.08
2017-10-04T00:29:40.355Z,1016.05
2017-10-04T00:30:06.477Z,1016.06
2017-10-04T00:30:32.597Z,1016.1
2017-10-04T00:30:58.727Z,1016.06
2017-10-04T00:31:24.853Z,1016.11
2017-10-04T00:31:50.977Z,1016.09
2017-10-04T00:32:17.095Z,1016.1
2017-10-04T00:32:43.217Z,1016.12
2017-10-04T00:33:09.350Z,1016.07
2017-10-04T00:33:35.468Z,1016.07
2017-10-04T00:34:01.598Z,1016.06
2017-10-04T00:34:27.722Z,1016
2017-10-04T00:34:53.847Z,1015.99
2017-10-04T00:35:19.964Z,1016.03
2017-10-04T00:35:46.081Z,1016.07
2017-10-04T00:36:12.204Z,1016
2017-10-04T00:36:38.334Z,1016.01
2017-10-04T00:37:04.459Z,1016.07
2017-10-04T00:37:30.581Z,1016.07
2017-10-04T00:37:56.707Z,1016.06
2017-10-04T00:38:22.826Z,1016.08
2017-10-04T00:38:48.971Z,1016.05
2017-10-04T00:39:15.097Z,1016.05
2017-10-04T00:39:41.221Z,1015.99
2017-10-04T00:40:07.338Z,1015.98
2017-10-04T00:40:33.460Z,1016
2017-10-04T00:40:59.590Z,1015.96
2017-10-04T00:41:25.710Z,1015.95
2017-10-04T00:41:51.829Z,1015.98
2017-10-04T00:42:17.956Z,1016
2017-10-04T00:42:44.074Z,1016.01
2017-10-04T00:43:10.201Z,1016.02
2017-10-04T00:43:36.321Z,1016
2017-10-04T00:44:02.446Z,1016.09
2017-10-04T00:44:28.575Z,1016.1
2017-10-04T00:44:54.691Z,1016.07
2017-10-04T00:45:20.811Z,1016.1
2017-10-04T00:45:46.943Z,1016.09
2017-10-04T00:46:13.065Z,1016.07
2017-10-04T00:46:39.185Z,1016.07
2017-10-04T00:47:05.313Z,1016.03
2017-10-04T00:47:31.428Z,1016.03
2017-10-04T00:47:57.549Z,1016
2017-10-04T00:48:23.679Z,1015.99
2017-10-04T00:48:49.796Z,1015.98
2017-10-04T00:49:15.927Z,1015.96
2017-10-04T00:49:42.045Z,1015.96
2017-10-04T00:50:08.173Z,1015.98
2017-10-04T00:50:34.320Z,1015.96
2017-10-04T00:51:00.441Z,1016.02
2017-10-04T00:51:26.564Z,1015.98
2017-10-04T00:51:52.705Z,1015.99
2017-10-04T00:52:18.827Z,1016.01
2017-10-04T00:52:44.954Z,1015.97
2017-10-04T00:53:11.074Z,1015.97
2017-10-04T00:53:37.198Z,1015.96
2017-10-04T00:54:03.322Z,1015.98
2017-10-04T00:54:29.444Z,1015.97
2017-10-04T00:54:55.570Z,1015.94
2017-10-04T00:55:21.693Z,1015.94
2017-10-04T00:55:47.835Z,1015.9
2017-10-04T00:56:13.953Z,1015.88
2017-10-04T00:56:40.072Z,1015.89
2017-10-04T00:57:06.205Z,1015.84
2017-10-04T00:57:32.329Z,1015.85
2017-10-04T00:57:58.449Z,1015.84
2017-10-04T00:58:24.572Z,1015.85
2017-10-04T00:58:50.698Z,1015.85
2017-10-04T00:59:16.829Z,1015.83
2017-10-04T00:59:42.946Z,1015.78
2017-10-04T01:00:09.074Z,1015.89
2017-10-04T01:00:35.200Z,1015.81
2017-10-04T01:01:01.313Z,1015.82
2017-10-04T01:01:27.436Z,1015.85
2017-10-04T01:01:53.561Z,1015.82
2017-10-04T01:02:19.688Z,1015.98
2017-10-04T01:02:45.807Z,1015.91
2017-10-04T01:03:11.937Z,1015.9
2017-10-04T01:03:38.055Z,1015.93
2017-10-04T01:04:04.184Z,1015.92
2017-10-04T01:04:30.309Z,1015.95
2017-10-04T01:04:56.433Z,1015.91
2017-10-04T01:05:22.557Z,1015.84
2017-10-04T01:05:48.674Z,1015.87
2017-10-04T01:06:14.802Z,1015.91
2017-10-04T01:06:40.919Z,1015.85
2017-10-04T01:07:07.047Z,1015.89
2017-10-04T01:07:33.170Z,1015.85
2017-10-04T01:07:59.289Z,1015.9
2017-10-04T01:08:25.416Z,1015.86
2017-10-04T01:08:51.539Z,1015.83
2017-10-04T01:09:17.677Z,1015.76
2017-10-04T01:09:43.804Z,1015.8
2017-10-04T01:10:09.923Z,1015.75
2017-10-04T01:10:36.050Z,1015.74
2017-10-04T01:11:02.168Z,1015.75
2017-10-04T01:11:28.291Z,1015.74
2017-10-04T01:11:54.418Z,1015.78
2017-10-04T01:12:20.565Z,1015.74
2017-10-04T01:12:46.684Z,1015.7
2017-10-04T01:13:12.810Z,1015.71
2017-10-04T01:13:38.937Z,1015.77
2017-10-04T01:14:05.078Z,1015.66
2017-10-04T01:14:31.208Z,1015.68
2017-10-04T01:14:57.326Z,1015.68
2017-10-04T01:15:23.449Z,1015.67
2017-10-04T01:15:49.565Z,1015.71
2017-10-04T01:16:15.692Z,1015.7
2017-10-04T01:16:41.828Z,1015.7
2017-10-04T01:17:07.984Z,1015.69
2017-10-04T01:17:34.102Z,1015.69
2017-10-04T01:18:00.224Z,1015.7
2017-10-04T01:18:26.352Z,1015.64
2017-10-04T01:18:52.471Z,1015.66
2017-10-04T01:19:18.599Z,1015.63
2017-10-04T01:19:44.724Z,1015.64
2017-10-04T01:20:10.846Z,1015.65
2017-10-04T01:20:36.965Z,1015.68
2017-10-04T01:21:03.085Z,1015.68
2017-10-04T01:21:29.208Z,1015.65
2017-10-04T01:21:55.326Z,1015.61
2017-10-04T01:22:21.460Z,1015.66
2017-10-04T01:22:47.589Z,1015.67
2017-10-04T01:23:13.707Z,1015.66
2017-10-04T01:23:39.826Z,1015.65
2017-10-04T01:24:05.956Z,1015.62
2017-10-04T01:24:32.075Z,1015.65
2017-10-04T01:24:58.207Z,1015.67
2017-10-04T01:25:24.327Z,1015.64
2017-10-04T01:25:50.452Z,1015.61
2017-10-04T01:26:16.577Z,1015.63
2017-10-04T01:26:42.694Z,1015.62
2017-10-04T01:27:08.815Z,1015.61
2017-10-04T01:27:34.944Z,1015.6
2017-10-04T01:28:01.064Z,1015.58
2017-10-04T01:28:27.190Z,1015.62
2017-10-04T01:28:53.312Z,1015.62
2017-10-04T01:29:19.437Z,1015.64
2017-10-04T01:29:45.562Z,1015.62
2017-10-04T01:30:11.680Z,1015.65
2017-10-04T01:30:37.802Z,1015.62
2017-10-04T01:31:03.930Z,1015.62
2017-10-04T01:31:30.057Z,1015.63
2017-10-04T01:31:56.175Z,1015.62
2017-10-04T01:32:22.313Z,1015.67
2017-10-04T01:32:48.424Z,1015.66
2017-10-04T01:33:14.542Z,1015.7
2017-10-04T01:33:40.671Z,1015.67
2017-10-04T01:34:06.797Z,1015.63
2017-10-04T01:34:32.915Z,1015.66
2017-10-04T01:34:59.035Z,1015.66
2017-10-04T01:35:25.159Z,1015.7
2017-10-04T01:35:51.281Z,1015.67
2017-10-04T01:36:17.409Z,1015.64
2017-10-04T01:36:43.537Z,1015.66
2017-10-04T01:37:09.662Z,1015.68
2017-10-04T01:37:35.776Z,1015.72
2017-10-04T01:38:01.903Z,1015.69
2017-10-04T01:38:28.020Z,1015.73
2017-10-04T01:38:54.147Z,1015.78
2017-10-04T01:39:20.271Z,1015.76
2017-10-04T01:39:46.390Z,1015.72
2017-10-04T01:40:12.517Z,1015.74
2017-10-04T01:40:38.633Z,1015.75
2017-10-04T01:41:04.753Z,1015.8
2017-10-04T01:41:30.881Z,1015.74
2017-10-04T01:41:57.001Z,1015.82
2017-10-04T01:42:23.125Z,1015.78
2017-10-04T01:42:49.252Z,1015.77
2017-10-04T01:43:15.369Z,1015.83
2017-10-04T01:43:41.490Z,1015.81
2017-10-04T01:44:07.617Z,1015.78
2017-10-04T01:44:33.743Z,1015.78
2017-10-04T01:44:59.861Z,1015.75
2017-10-04T01:45:25.982Z,1015.75
2017-10-04T01:45:52.110Z,1015.75
2017-10-04T01:46:18.234Z,1015.79
2017-10-04T01:46:44.356Z,1015.71
2017-10-04T01:47:10.476Z,1015.73
2017-10-04T01:47:36.606Z,1015.77
2017-10-04T01:48:02.731Z,1015.76
2017-10-04T01:48:28.850Z,1015.73
2017-10-04T01:48:54.967Z,1015.71
2017-10-04T01:49:21.087Z,1015.71
2017-10-04T01:49:47.209Z,1015.72
2017-10-04T01:50:13.339Z,1015.78
2017-10-04T01:50:39.467Z,1015.7
2017-10-04T01:51:05.583Z,1015.8
2017-10-04T01:51:31.711Z,1015.75
2017-10-04T01:51:57.833Z,1015.79
2017-10-04T01:52:23.950Z,1015.74
2017-10-04T01:52:50.081Z,1015.73
2017-10-04T01:53:16.209Z,1015.69
2017-10-04T01:53:42.323Z,1015.69
2017-10-04T01:54:08.451Z,1015.68
2017-10-04T01:54:34.572Z,1015.73
2017-10-04T01:55:00.696Z,1015.74
2017-10-04T01:55:26.825Z,1015.75
2017-10-04T01:55:52.949Z,1015.76
2017-10-04T01:56:19.071Z,1015.75
2017-10-04T01:56:45.193Z,1015.77
2017-10-04T01:57:11.336Z,1015.8
2017-10-04T01:57:37.461Z,1015.82
2017-10-04T01:58:03.588Z,1015.77
2017-10-04T01:58:29.703Z,1015.78
2017-10-04T01:58:55.822Z,1015.76
2017-10-04T01:59:21.944Z,1015.76
2017-10-04T01:59:48.074Z,1015.74
2017-10-04T02:00:14.200Z,1015.8
2017-10-04T02:00:40.321Z,1015.75
2017-10-04T02:01:06.438Z,1015.72
2017-10-04T02:01:32.565Z,1015.74
2017-10-04T02:01:58.689Z,1015.68
2017-10-04T02:02:24.810Z,1015.76
2017-10-04T02:02:50.941Z,1015.77
2017-10-04T02:03:17.063Z,1015.73
2017-10-04T02:03:43.210Z,1015.68
2017-10-04T02:04:09.330Z,1015.72
2017-10-04T02:04:35.471Z,1015.68
2017-10-04T02:05:01.600Z,1015.68
2017-10-04T02:05:27.717Z,1015.69
2017-10-04T02:05:53.847Z,1015.67
2017-10-04T02:06:19.965Z,1015.7
2017-10-04T02:06:46.091Z,1015.62
2017-10-04T02:07:12.216Z,1015.61
2017-10-04T02:07:38.334Z,1015.59
2017-10-04T02:08:04.461Z,1015.64
2017-10-04T02:08:30.584Z,1015.62
2017-10-04T02:08:56.708Z,1015.61
2017-10-04T02:09:22.825Z,1015.57
2017-10-04T02:09:48.952Z,1015.62
2017-10-04T02:10:15.072Z,1015.63
2017-10-04T02:10:41.195Z,1015.64
2017-10-04T02:11:07.327Z,1015.6
2017-10-04T02:11:33.443Z,1015.64
2017-10-04T02:11:59.570Z,1015.62
2017-10-04T02:12:25.686Z,1015.62
2017-10-04T02:12:51.804Z,1015.62
2017-10-04T02:13:17.932Z,1015.58
2017-10-04T02:13:44.053Z,1015.61
2017-10-04T02:14:10.176Z,1015.61
2017-10-04T02:14:36.328Z,1015.57
2017-10-04T02:15:02.446Z,1015.55
2017-10-04T02:15:28.575Z,1015.56
2017-10-04T02:15:54.692Z,1015.61
2017-10-04T02:16:20.819Z,1015.62
2017-10-04T02:16:46.940Z,1015.58
2017-10-04T02:17:13.066Z,1015.55
2017-10-04T02:17:39.184Z,1015.55
2017-10-04T02:18:05.309Z,1015.56
2017-10-04T02:18:31.439Z,1015.59
2017-10-04T02:18:57.557Z,1015.54
2017-10-04T02:19:23.698Z,1015.53
2017-10-04T02:19:49.814Z,1015.51
2017-10-04T02:20:15.940Z,1015.51
2017-10-04T02:20:42.057Z,1015.45
2017-10-04T02:21:08.185Z,1015.48
2017-10-04T02:21:34.313Z,1015.47
2017-10-04T02:22:00.432Z,1015.51
2017-10-04T02:22:26.556Z,1015.53
2017-10-04T02:22:52.683Z,1015.53
2017-10-04T02:23:18.800Z,1015.48
2017-10-04T02:23:44.922Z,1015.51
2017-10-04T02:24:11.045Z,1015.56
2017-10-04T02:24:37.168Z,1015.48
2017-10-04T02:25:03.293Z,1015.49
2017-10-04T02:25:29.434Z,1015.54
2017-10-04T02:25:55.566Z,1015.55
2017-10-04T02:26:21.694Z,1015.53
2017-10-04T02:26:47.831Z,1015.49
2017-10-04T02:27:13.956Z,1015.57
2017-10-04T02:27:40.076Z,1015.54
2017-10-04T02:28:06.204Z,1015.53
2017-10-04T02:28:32.323Z,1015.55
2017-10-04T02:28:58.445Z,1015.49
2017-10-04T02:29:24.573Z,1015.54
2017-10-04T02:29:50.720Z,1015.53
2017-10-04T02:30:16.837Z,1015.5
2017-10-04T02:30:42.961Z,1015.53
2017-10-04T02:31:09.086Z,1015.52
2017-10-04T02:31:35.207Z,1015.52
2017-10-04T02:32:01.334Z,1015.51
2017-10-04T02:32:27.452Z,1015.51
2017-10-04T02:32:53.574Z,1015.54
2017-10-04T02:33:19.696Z,1015.57
2017-10-04T02:33:45.819Z,1015.53
2017-10-04T02:34:11.953Z,1015.58
2017-10-04T02:34:38.092Z,1015.56
2017-10-04T02:35:04.215Z,1015.55
2017-10-04T02:35:30.345Z,1015.54
2017-10-04T02:35:56.472Z,1015.51
2017-10-04T02:36:22.591Z,1015.59
2017-10-04T02:36:48.714Z,1015.53
2017-10-04T02:37:14.836Z,1015.55
2017-10-04T02:37:40.958Z,1015.55
2017-10-04T02:38:07.088Z,1015.61
2017-10-04T02:38:33.234Z,1015.52
2017-10-04T02:38:59.376Z,1015.55
2017-10-04T02:39:25.508Z,1015.57
2017-10-04T02:39:51.653Z,1015.49
2017-10-04T02:40:17.771Z,1015.55
2017-10-04T02:40:43.916Z,1015.58
2017-10-04T02:41:10.040Z,1015.54
2017-10-04T02:41:36.176Z,1015.51
2017-10-04T02:42:02.298Z,1015.55
2017-10-04T02:42:28.417Z,1015.52
2017-10-04T02:42:54.541Z,1015.56
2017-10-04T02:43:20.669Z,1015.53
2017-10-04T02:43:46.794Z,1015.51
2017-10-04T02:44:12.912Z,1015.51
2017-10-04T02:44:39.034Z,1015.49
2017-10-04T02:45:05.162Z,1015.46
2017-10-04T02:45:31.281Z,1015.48
2017-10-04T02:45:57.411Z,1015.49
2017-10-04T02:46:23.537Z,1015.46
2017-10-04T02:46:49.655Z,1015.48
2017-10-04T02:47:15.782Z,1015.47
2017-10-04T02:47:41.903Z,1015.48
2017-10-04T02:48:08.024Z,1015.43
2017-10-04T02:48:34.153Z,1015.46
2017-10-04T02:49:00.310Z,1015.46
2017-10-04T02:49:26.423Z,1015.41
2017-10-04T02:49:52.541Z,1015.34
2017-10-04T02:50:18.668Z,1015.4
2017-10-04T02:50:44.795Z,1015.35
2017-10-04T02:51:10.932Z,1015.33
2017-10-04T02:51:37.053Z,1015.32
2017-10-04T02:52:03.184Z,1015.34
2017-10-04T02:52:29.302Z,1015.27
2017-10-04T02:52:55.426Z,1015.28
2017-10-04T02:53:21.553Z,1015.3
2017-10-04T02:53:47.671Z,1015.28
2017-10-04T02:54:13.799Z,1015.27
2017-10-04T02:54:39.943Z,1015.31
2017-10-04T02:55:06.097Z,1015.31
2017-10-04T02:55:32.215Z,1015.31
2017-10-04T02:55:58.336Z,1015.34
2017-10-04T02:56:24.458Z,1015.3
2017-10-04T02:56:50.573Z,1015.31
2017-10-04T02:57:16.702Z,1015.31
2017-10-04T02:57:42.834Z,1015.32
2017-10-04T02:58:08.961Z,1015.3
2017-10-04T02:58:35.088Z,1015.34
2017-10-04T02:59:01.212Z,1015.27
2017-10-04T02:59:27.334Z,1015.32
2017-10-04T02:59:53.454Z,1015.25
2017-10-04T03:00:19.572Z,1015.26
2017-10-04T03:00:45.698Z,1015.26
2017-10-04T03:01:11.821Z,1015.24
2017-10-04T03:01:37.967Z,1015.32
2017-10-04T03:02:04.095Z,1015.28
2017-10-04T03:02:30.216Z,1015.3
2017-10-04T03:02:56.336Z,1015.28
2017-10-04T03:03:22.453Z,1015.23
2017-10-04T03:03:48.579Z,1015.25
2017-10-04T03:04:14.699Z,1015.19
2017-10-04T03:04:40.826Z,1015.18
2017-10-04T03:05:06.953Z,1015.24
2017-10-04T03:05:33.079Z,1015.17
2017-10-04T03:05:59.199Z,1015.2
2017-10-04T03:06:25.321Z,1015.17
2017-10-04T03:06:51.440Z,1015.14
2017-10-04T03:07:17.569Z,1015.11
2017-10-04T03:07:43.686Z,1015.14
2017-10-04T03:08:09.810Z,1015.1
2017-10-04T03:08:35.979Z,1015.09
2017-10-04T03:09:02.096Z,1015.08
2017-10-04T03:09:28.222Z,1015.08
2017-10-04T03:09:54.346Z,1015.04
2017-10-04T03:10:20.464Z,1015.11
2017-10-04T03:10:46.594Z,1015.12
2017-10-04T03:11:12.712Z,1015.11
2017-10-04T03:11:38.838Z,1015.1
2017-10-04T03:12:04.955Z,1015.11
2017-10-04T03:12:31.075Z,1015.12
2017-10-04T03:12:57.200Z,1015.08
2017-10-04T03:13:23.331Z,1015.15
2017-10-04T03:13:49.449Z,1015.16
2017-10-04T03:14:15.571Z,1015.19
2017-10-04T03:14:41.700Z,1015.19
2017-10-04T03:15:07.818Z,1015.18
2017-10-04T03:15:33.945Z,1015.25
2017-10-04T03:16:00.065Z,1015.23
2017-10-04T03:16:26.193Z,1015.24
2017-10-04T03:16:52.338Z,1015.22
2017-10-04T03:17:18.462Z,1015.22
2017-10-04T03:17:44.579Z,1015.23
2017-10-04T03:18:10.705Z,1015.28
2017-10-04T03:18:36.831Z,1015.28
2017-10-04T03:19:02.953Z,1015.3
2017-10-04T03:19:29.078Z,1015.26
2017-10-04T03:19:55.194Z,1015.3
2017-10-04T03:20:21.321Z,1015.31
2017-10-04T03:20:47.437Z,1015.27
2017-10-04T03:21:13.558Z,1015.32
2017-10-04T03:21:39.686Z,1015.31
2017-10-04T03:22:05.805Z,1015.28
2017-10-04T03:22:31.931Z,1015.24
2017-10-04T03:22:58.061Z,1015.31
2017-10-04T03:23:24.179Z,1015.31
2017-10-04T03:23:50.302Z,1015.3
2017-10-04T03:24:16.424Z,1015.3
2017-10-04T03:24:42.547Z,1015.29
2017-10-04T03:25:08.696Z,1015.26
2017-10-04T03:25:34.806Z,1015.27
2017-10-04T03:26:00.928Z,1015.3
2017-10-04T03:26:27.058Z,1015.31
2017-10-04T03:26:53.183Z,1015.29
2017-10-04T03:27:19.303Z,1015.3
2017-10-04T03:27:45.421Z,1015.3
2017-10-04T03:28:11.544Z,1015.28
2017-10-04T03:28:37.670Z,1015.29
2017-10-04T03:29:03.791Z,1015.27
2017-10-04T03:29:29.922Z,1015.29
2017-10-04T03:29:56.039Z,1015.28
2017-10-04T03:30:22.187Z,1015.28
2017-10-04T03:30:48.312Z,1015.29
2017-10-04T03:31:14.428Z,1015.3
2017-10-04T03:31:40.554Z,1015.29
2017-10-04T03:32:06.677Z,1015.36
2017-10-04T03:32:32.802Z,1015.34
2017-10-04T03:32:58.921Z,1015.33
2017-10-04T03:33:25.053Z,1015.35
2017-10-04T03:33:51.174Z,1015.36
2017-10-04T03:34:17.293Z,1015.31
2017-10-04T03:34:43.416Z,1015.35
2017-10-04T03:35:09.538Z,1015.27
2017-10-04T03:35:35.666Z,1015.3
2017-10-04T03:36:01.783Z,1015.29
2017-10-04T03:36:27.914Z,1015.3
2017-10-04T03:36:54.033Z,1015.24
2017-10-04T03:37:20.158Z,1015.21
2017-10-04T03:37:46.284Z,1015.2
2017-10-04T03:38:12.400Z,1015.13
2017-10-04T03:38:38.523Z,1015.11
2017-10-04T03:39:04.653Z,1015.12
2017-10-04T03:39:30.769Z,1015.05
2017-10-04T03:39:56.890Z,1015.03
2017-10-04T03:40:23.016Z,1015.03
2017-10-04T03:40:49.145Z,1015.07
2017-10-04T03:41:15.262Z,1015.06
2017-10-04T03:41:41.385Z,1015.01
2017-10-04T03:42:07.513Z,1015.08
2017-10-04T03:42:33.634Z,1015.04
2017-10-04T03:42:59.757Z,1015.1
2017-10-04T03:43:25.873Z,1015.04
2017-10-04T03:43:52.007Z,1015.08
2017-10-04T03:44:18.130Z,1015.1
2017-10-04T03:44:44.249Z,1015.04
2017-10-04T03:45:10.373Z,1015.06
2017-10-04T03:45:36.486Z,1015.02
2017-10-04T03:46:02.637Z,1015.05
2017-10-04T03:46:28.760Z,1015
2017-10-04T03:46:54.882Z,1015.03
2017-10-04T03:47:21.010Z,1015.01
2017-10-04T03:47:47.136Z,1015.04
2017-10-04T03:48:13.257Z,1015.03
2017-10-04T03:48:39.382Z,1015
2017-10-04T03:49:05.499Z,1015.03
2017-10-04T03:49:31.633Z,1014.97
2017-10-04T03:49:57.757Z,1015.01
2017-10-04T03:50:23.873Z,1014.99
2017-10-04T03:50:50.000Z,1014.97
2017-10-04T03:51:16.121Z,1014.97
2017-10-04T03:51:42.254Z,1014.97
2017-10-04T03:52:08.371Z,1014.97
2017-10-04T03:52:34.496Z,1014.99
2017-10-04T03:53:00.614Z,1014.95
2017-10-04T03:53:26.741Z,1014.99
2017-10-04T03:53:52.861Z,1015.01
2017-10-04T03:54:18.982Z,1014.97
2017-10-04T03:54:45.109Z,1014.99
2017-10-04T03:55:11.231Z,1014.98
2017-10-04T03:55:37.357Z,1014.98
2017-10-04T03:56:03.477Z,1014.98
2017-10-04T03:56:29.605Z,1015.02
2017-10-04T03:56:55.731Z,1015.06
2017-10-04T03:57:21.868Z,1015
2017-10-04T03:57:47.979Z,1015.01
2017-10-04T03:58:14.099Z,1015.06
2017-10-04T03:58:40.226Z,1015.04
2017-10-04T03:59:06.348Z,1015.03
2017-10-04T03:59:32.491Z,1015.01
2017-10-04T03:59:58.616Z,1015.03
2017-10-04T04:00:24.768Z,1015.01
2017-10-04T04:00:50.857Z,1014.95
2017-10-04T04:01:16.979Z,1014.96
2017-10-04T04:01:43.107Z,1014.95
2017-10-04T04:02:09.225Z,1014.9
2017-10-04T04:02:35.352Z,1014.95
2017-10-04T04:03:01.474Z,1014.94
2017-10-04T04:03:27.592Z,1014.93
2017-10-04T04:03:53.719Z,1014.88
2017-10-04T04:04:19.846Z,1014.87
2017-10-04T04:04:45.964Z,1014.83
2017-10-04T04:05:12.096Z,1014.88
2017-10-04T04:05:38.217Z,1014.89
2017-10-04T04:06:04.335Z,1014.91
2017-10-04T04:06:30.453Z,1014.93
2017-10-04T04:06:56.582Z,1014.91
2017-10-04T04:07:22.708Z,1014.91
2017-10-04T04:07:48.826Z,1014.89
2017-10-04T04:08:14.957Z,1014.93
2017-10-04T04:08:41.075Z,1014.87
2017-10-04T04:09:07.192Z,1014.87
2017-10-04T04:09:33.315Z,1014.85
2017-10-04T04:09:59.449Z,1014.87
2017-10-04T04:10:25.569Z,1014.83
2017-10-04T04:10:51.689Z,1014.85
2017-10-04T04:11:17.805Z,1014.79
2017-10-04T04:11:43.927Z,1014.78
2017-10-04T04:12:10.054Z,1014.8
2017-10-04T04:12:36.181Z,1014.78
2017-10-04T04:13:02.303Z,1014.78
2017-10-04T04:13:28.421Z,1014.77
2017-10-04T04:13:54.548Z,1014.86
2017-10-04T04:14:20.672Z,1014.82
2017-10-04T04:14:46.792Z,1014.76
2017-10-04T04:15:12.912Z,1014.77
2017-10-04T04:15:39.042Z,1014.79
2017-10-04T04:16:05.168Z,1014.75
2017-10-04T04:16:31.284Z,1014.75
2017-10-04T04:16:57.412Z,1014.74
2017-10-04T04:17:23.531Z,1014.72
2017-10-04T04:17:49.658Z,1014.75
2017-10-04T04:18:15.782Z,1014.68
2017-10-04T04:18:41.907Z,1014.72
2017-10-04T04:19:08.027Z,1014.68
2017-10-04T04:19:34.164Z,1014.7
2017-10-04T04:20:00.291Z,1014.71
2017-10-04T04:20:26.409Z,1014.74
2017-10-04T04:20:52.536Z,1014.68
2017-10-04T04:21:18.661Z,1014.68
2017-10-04T04:21:44.779Z,1014.68
2017-10-04T04:22:10.923Z,1014.69
2017-10-04T04:22:37.048Z,1014.67
2017-10-04T04:23:03.167Z,1014.7
2017-10-04T04:23:29.311Z,1014.69
2017-10-04T04:23:55.459Z,1014.74
2017-10-04T04:24:21.576Z,1014.67
2017-10-04T04:24:47.696Z,1014.74
2017-10-04T04:25:13.819Z,1014.74
2017-10-04T04:25:39.940Z,1014.75
2017-10-04T04:26:06.067Z,1014.72
2017-10-04T04:26:32.188Z,1014.77
2017-10-04T04:26:58.309Z,1014.79
2017-10-04T04:27:24.429Z,1014.79
2017-10-04T04:27:50.558Z,1014.76
2017-10-04T04:28:16.678Z,1014.8
2017-10-04T04:28:42.807Z,1014.85
2017-10-04T04:29:08.935Z,1014.81
2017-10-04T04:29:35.057Z,1014.8
2017-10-04T04:30:01.181Z,1014.75
2017-10-04T04:30:27.303Z,1014.75
2017-10-04T04:30:53.422Z,1014.81
2017-10-04T04:31:19.542Z,1014.77
2017-10-04T04:31:45.664Z,1014.73
2017-10-04T04:32:11.786Z,1014.72
2017-10-04T04:32:37.909Z,1014.72
2017-10-04T04:33:04.037Z,1014.77
2017-10-04T04:33:30.162Z,1014.71
2017-10-04T04:33:56.280Z,1014.72
2017-10-04T04:34:22.404Z,1014.75
2017-10-04T04:34:48.537Z,1014.7
2017-10-04T04:35:14.660Z,1014.71
2017-10-04T04:35:40.782Z,1014.71
2017-10-04T04:36:06.900Z,1014.75
2017-10-04T04:36:33.033Z,1014.71
2017-10-04T04:36:59.180Z,1014.7
2017-10-04T04:37:25.304Z,1014.72
2017-10-04T04:37:51.421Z,1014.68
2017-10-04T04:38:17.544Z,1014.7
2017-10-04T04:38:43.662Z,1014.72
2017-10-04T04:39:09.789Z,1014.75
2017-10-04T04:39:35.916Z,1014.73
2017-10-04T04:40:02.035Z,1014.74
2017-10-04T04:40:28.162Z,1014.75
2017-10-04T04:40:54.297Z,1014.77
2017-10-04T04:41:20.433Z,1014.78
2017-10-04T04:41:46.548Z,1014.79
2017-10-04T04:42:12.715Z,1014.79
2017-10-04T04:42:38.838Z,1014.81
2017-10-04T04:43:04.961Z,1014.82
2017-10-04T04:43:31.083Z,1014.76
2017-10-04T04:43:57.207Z,1014.76
2017-10-04T04:44:23.326Z,1014.74
2017-10-04T04:44:49.453Z,1014.74
2017-10-04T04:45:15.578Z,1014.71
2017-10-04T04:45:41.699Z,1014.71
2017-10-04T04:46:07.832Z,1014.66
2017-10-04T04:46:33.952Z,1014.71
2017-10-04T04:47:00.079Z,1014.64
2017-10-04T04:47:26.223Z,1014.66
2017-10-04T04:47:52.328Z,1014.63
2017-10-04T04:48:18.472Z,1014.63
2017-10-04T04:48:44.589Z,1014.61
2017-10-04T04:49:10.715Z,1014.63
2017-10-04T04:49:36.834Z,1014.61
2017-10-04T04:50:02.969Z,1014.58
2017-10-04T04:50:29.130Z,1014.63
2017-10-04T04:50:55.238Z,1014.59
2017-10-04T04:51:21.363Z,1014.62
2017-10-04T04:51:47.522Z,1014.61
2017-10-04T04:52:13.648Z,1014.58
2017-10-04T04:52:39.775Z,1014.61
2017-10-04T04:53:05.894Z,1014.62
2017-10-04T04:53:32.036Z,1014.66
2017-10-04T04:53:58.140Z,1014.55
2017-10-04T04:54:24.262Z,1014.64
2017-10-04T04:54:50.388Z,1014.66
2017-10-04T04:55:16.516Z,1014.66
2017-10-04T04:55:42.636Z,1014.61
2017-10-04T04:56:08.757Z,1014.61
2017-10-04T04:56:34.883Z,1014.63
2017-10-04T04:57:01.001Z,1014.67
2017-10-04T04:57:27.127Z,1014.63
2017-10-04T04:57:53.248Z,1014.66
2017-10-04T04:58:19.372Z,1014.64
2017-10-04T04:58:45.498Z,1014.63
2017-10-04T04:59:11.619Z,1014.68
2017-10-04T04:59:37.743Z,1014.66
2017-10-04T05:00:03.869Z,1014.63
2017-10-04T05:00:30.002Z,1014.68
2017-10-04T05:00:56.132Z,1014.67
2017-10-04T05:01:22.255Z,1014.66
2017-10-04T05:01:48.379Z,1014.67
2017-10-04T05:02:14.500Z,1014.68
2017-10-04T05:02:40.631Z,1014.65
2017-10-04T05:03:06.767Z,1014.61
2017-10-04T05:03:32.888Z,1014.65
2017-10-04T05:03:59.017Z,1014.64
2017-10-04T05:04:25.141Z,1014.64
2017-10-04T05:04:51.266Z,1014.7
2017-10-04T05:05:17.387Z,1014.64
2017-10-04T05:05:43.509Z,1014.66
2017-10-04T05:06:09.637Z,1014.66
2017-10-04T05:06:35.754Z,1014.67
2017-10-04T05:07:01.884Z,1014.61
2017-10-04T05:07:28.003Z,1014.65
2017-10-04T05:07:54.124Z,1014.66
2017-10-04T05:08:20.245Z,1014.61
2017-10-04T05:08:46.370Z,1014.66
2017-10-04T05:09:12.497Z,1014.65
2017-10-04T05:09:38.617Z,1014.69
2017-10-04T05:10:04.739Z,1014.69
2017-10-04T05:10:30.865Z,1014.75
2017-10-04T05:10:56.983Z,1014.68
2017-10-04T05:11:23.111Z,1014.69
2017-10-04T05:11:49.235Z,1014.67
2017-10-04T05:12:15.354Z,1014.68
2017-10-04T05:12:41.482Z,1014.66
2017-10-04T05:13:07.597Z,1014.67
2017-10-04T05:13:33.719Z,1014.62
2017-10-04T05:13:59.846Z,1014.56
2017-10-04T05:14:25.970Z,1014.62
2017-10-04T05:14:52.094Z,1014.62
2017-10-04T05:15:18.220Z,1014.64
2017-10-04T05:15:44.339Z,1014.57
2017-10-04T05:16:10.489Z,1014.55
2017-10-04T05:16:36.627Z,1014.59
2017-10-04T05:17:02.760Z,1014.6